createdAt,value
2018-03-06T00:04:32.000Z,37.052
2018-03-06T00:14:32.000Z,36.861
2018-03-06T00:24:32.000Z,36.825
2018-03-06T00:34:32.000Z,36.699
2018-03-06T00:44:32.000Z,36.65
2018-03-06T00:54:32.000Z,36.468
2018-03-06T01:04:32.000Z,36.344
2018-03-06T01:14:32.000Z,36.426
2018-03-06T01:24:32.000Z,36.476
2018-03-06T01:34:32.000Z,36.361
2018-03-06T01:44:32.000Z,36.324
2018-03-06T01:54:32.000Z,36.264
2018-03-06T02:04:32.000Z,36.38
2018-03-06T02:14:32.000Z,36.342
2018-03-06T02:24:32.000Z,36.391
2018-03-06T02:34:32.000Z,36.268
2018-03-06T02:44:32.000Z,36.307
2018-03-06T02:54:32.000Z,36.315
2018-03-06T03:04:32.000Z,36.365
2018-03-06T03:14:32.000Z,36.382
2018-03-06T03:24:32.000Z,36.39
2018-03-06T03:34:32.000Z,36.427
2018-03-06T03:44:32.000Z,36.391
2018-03-06T03:54:32.000Z,36.43
2018-03-06T04:04:32.000Z,36.437
2018-03-06T04:14:32.000Z,36.445
2018-03-06T04:24:32.000Z,36.539
2018-03-06T04:34:32.000Z,36.524
2018-03-06T04:44:32.000Z,36.477
2018-03-06T04:54:33.000Z,36.505
2018-03-06T05:04:33.000Z,36.546
2018-03-06T05:14:33.000Z,36.509
2018-03-06T05:24:33.000Z,36.561
2018-03-06T05:34:33.000Z,36.6
2018-03-06T05:44:33.000Z,36.62
2018-03-06T05:54:33.000Z,36.616
2018-03-06T06:04:33.000Z,36.494
2018-03-06T06:14:33.000Z,36.568
2018-03-06T06:24:33.000Z,36.543
2018-03-06T06:34:33.000Z,36.334
2018-03-06T06:44:33.000Z,36.116
2018-03-06T06:54:33.000Z,35.952
2018-03-06T07:04:33.000Z,36.065
2018-03-06T07:14:33.000Z,36.09
2018-03-06T07:24:33.000Z,35.836
2018-03-06T07:34:33.000Z,35.639
2018-03-06T07:44:33.000Z,35.292
2018-03-06T07:54:33.000Z,35.234
2018-03-06T08:04:33.000Z,34.918
2018-03-06T08:14:33.000Z,35.065
2018-03-06T08:24:33.000Z,34.597
2018-03-06T08:34:33.000Z,34.041
2018-03-06T08:44:33.000Z,33.663
2018-03-06T08:54:33.000Z,33.198
2018-03-06T09:04:33.000Z,32.849
2018-03-06T09:14:33.000Z,31.43
2018-03-06T09:24:33.000Z,30.911
2018-03-06T09:34:33.000Z,30.42
2018-03-06T09:44:33.000Z,30.213
2018-03-06T09:54:33.000Z,29.853
2018-03-06T10:04:33.000Z,29.416
2018-03-06T10:14:33.000Z,28.937
2018-03-06T10:24:33.000Z,28.23
2018-03-06T10:34:33.000Z,27.568
2018-03-06T10:44:33.000Z,27.238
2018-03-06T10:54:33.000Z,27.319
2018-03-06T11:04:33.000Z,26.64
2018-03-06T11:14:33.000Z,26.177
2018-03-06T11:24:33.000Z,26.051
2018-03-06T11:34:33.000Z,25.967
2018-03-06T11:44:34.000Z,26.061
2018-03-06T11:54:33.000Z,26.655
2018-03-06T12:04:33.000Z,27.478
2018-03-06T12:14:33.000Z,28.329
2018-03-06T12:24:33.000Z,28.754
2018-03-06T12:34:33.000Z,29.123
2018-03-06T12:44:33.000Z,29.522
2018-03-06T12:54:33.000Z,29.68
2018-03-06T13:04:33.000Z,30.107
2018-03-06T13:14:33.000Z,30.487
2018-03-06T13:24:33.000Z,30.81
2018-03-06T13:34:34.000Z,31.025
2018-03-06T13:44:34.000Z,30.939
2018-03-06T13:54:37.000Z,31.33
2018-03-06T14:04:34.000Z,31.318
2018-03-06T14:14:34.000Z,31.637
2018-03-06T14:24:34.000Z,31.802
2018-03-06T14:34:34.000Z,31.936
2018-03-06T14:44:34.000Z,31.948
2018-03-06T14:54:34.000Z,32.181
2018-03-06T15:04:34.000Z,32.15
2018-03-06T15:14:34.000Z,32.251
2018-03-06T15:24:34.000Z,31.912
2018-03-06T15:34:34.000Z,31.702
2018-03-06T15:44:34.000Z,31.537
2018-03-06T15:54:34.000Z,31.688
2018-03-06T16:04:34.000Z,31.791
2018-03-06T16:14:34.000Z,32.696
2018-03-06T16:24:34.000Z,32.982
2018-03-06T16:34:34.000Z,34.421
2018-03-06T16:44:34.000Z,34.257
2018-03-06T16:54:34.000Z,36.199
2018-03-06T17:04:34.000Z,37.506
2018-03-06T17:14:34.000Z,36.281
2018-03-06T17:24:34.000Z,37.297
2018-03-06T17:34:34.000Z,36.432
2018-03-06T17:44:34.000Z,36.478
2018-03-06T17:54:34.000Z,34.92
2018-03-06T18:04:34.000Z,34.682
2018-03-06T18:14:34.000Z,33.884
2018-03-06T18:24:34.000Z,32.562
2018-03-06T18:34:34.000Z,32.698
2018-03-06T18:44:34.000Z,32.453
2018-03-06T18:54:34.000Z,32.523
2018-03-06T19:04:34.000Z,32.713
2018-03-06T19:14:34.000Z,32.395
2018-03-06T19:24:34.000Z,32.032
2018-03-06T19:34:34.000Z,32.429
2018-03-06T19:44:34.000Z,32.265
2018-03-06T19:54:34.000Z,32.716
2018-03-06T20:04:34.000Z,32.484
2018-03-06T20:14:34.000Z,32.525
2018-03-06T20:24:34.000Z,32.349
2018-03-06T20:34:34.000Z,32.443
2018-03-06T20:44:34.000Z,32.255
2018-03-06T20:54:34.000Z,32.23
2018-03-06T21:04:34.000Z,32.206
2018-03-06T21:14:34.000Z,32.311
2018-03-06T21:24:34.000Z,32.21
2018-03-06T21:34:37.000Z,32.021
2018-03-06T21:44:35.000Z,31.802
2018-03-06T21:54:35.000Z,31.897
2018-03-06T22:04:35.000Z,32.351
2018-03-06T22:14:35.000Z,32.076
2018-03-06T22:24:35.000Z,32.323
2018-03-06T22:34:35.000Z,32.375
2018-03-06T22:44:35.000Z,32.359
2018-03-06T23:04:35.000Z,32.461
2018-03-06T23:14:35.000Z,32.553
2018-03-06T23:24:35.000Z,32.725
2018-03-06T23:34:35.000Z,32.643
2018-03-06T23:44:35.000Z,32.705
2018-03-06T23:54:35.000Z,32.908
